createdAt,value
2022-10-06T00:05:31.590Z,99342.05
2022-10-06T00:16:00.310Z,99347.15
2022-10-06T00:26:28.397Z,99358.52
2022-10-06T00:36:56.414Z,99358.36
2022-10-06T00:47:26.210Z,99363.63
2022-10-06T00:57:54.996Z,99370.48
2022-10-06T01:08:24.906Z,99367.87
2022-10-06T01:18:56.804Z,99368.08
2022-10-06T01:29:25.562Z,99379.56
2022-10-06T01:39:53.568Z,99388.80
2022-10-06T01:50:21.718Z,99387.74
2022-10-06T02:00:48.149Z,99391.13
2022-10-06T02:11:16.498Z,99393.34
2022-10-06T02:21:44.483Z,99392.41
2022-10-06T02:32:12.434Z,99397.11
2022-10-06T02:42:41.188Z,99400.89
2022-10-06T02:53:09.286Z,99404.08
2022-10-06T03:03:36.087Z,99404.06
2022-10-06T03:14:04.534Z,99410.45
2022-10-06T03:24:32.839Z,99411.69
2022-10-06T03:35:00.714Z,99417.43
2022-10-06T03:45:27.257Z,99410.41
2022-10-06T03:56:02.164Z,99412.17
2022-10-06T04:06:31.564Z,99418.18
2022-10-06T04:16:59.558Z,99425.28
2022-10-06T04:27:28.918Z,99432.41
2022-10-06T04:37:59.249Z,99438.55
2022-10-06T04:48:28.309Z,99440.09
2022-10-06T04:58:58.223Z,99452.91
2022-10-06T05:09:26.079Z,99465.08
2022-10-06T05:19:54.225Z,99468.17
2022-10-06T05:30:22.201Z,99475.73
2022-10-06T05:40:48.660Z,99479.93
2022-10-06T05:51:17.541Z,99492.14
2022-10-06T06:01:47.287Z,99512.20
2022-10-06T06:12:16.650Z,99546.11
2022-10-06T06:22:44.762Z,99558.71
2022-10-06T06:33:11.076Z,99558.52
2022-10-06T06:43:39.569Z,99582.19
2022-10-06T06:54:08.340Z,99595.86
2022-10-06T07:04:37.500Z,99599.90
2022-10-06T07:15:23.410Z,99614.86
2022-10-06T07:25:53.206Z,99614.55
2022-10-06T07:36:22.686Z,99611.52
2022-10-06T07:46:57.540Z,99622.61
2022-10-06T07:57:26.936Z,99634.19
2022-10-06T08:07:56.562Z,99645.71
2022-10-06T08:18:47.577Z,99653.42
2022-10-06T08:29:13.666Z,99664.62
2022-10-06T08:39:43.007Z,99674.79
2022-10-06T08:50:14.813Z,99689.90
2022-10-06T09:00:43.390Z,99694.89
2022-10-06T09:11:27.341Z,99706.11
2022-10-06T09:22:00.149Z,99696.41
2022-10-06T09:32:30.773Z,99696.97
2022-10-06T09:42:58.854Z,99698.39
2022-10-06T09:53:27.285Z,99725.57
2022-10-06T10:14:49.222Z,99732.66
2022-10-06T10:25:30.759Z,99733.13
2022-10-06T10:36:00.807Z,99730.89
2022-10-06T10:46:34.979Z,99734.31
2022-10-06T10:57:04.225Z,99739.83
2022-10-06T11:07:39.625Z,99748.19
2022-10-06T11:18:22.499Z,99748.16
2022-10-06T11:28:56.271Z,99752.45
2022-10-06T11:39:31.050Z,99757.78
2022-10-06T11:49:59.122Z,99766.37
2022-10-06T12:00:46.773Z,99762.45
2022-10-06T12:11:41.134Z,99764.52
2022-10-06T12:22:17.697Z,99764.92
2022-10-06T12:33:05.826Z,99765.65
2022-10-06T12:43:59.300Z,99766.69
2022-10-06T12:54:35.019Z,99770.48
2022-10-06T13:05:11.547Z,99762.84
2022-10-06T13:15:44.193Z,99766.98
2022-10-06T13:26:22.858Z,99770.05
2022-10-06T13:36:53.475Z,99764.67
2022-10-06T13:47:23.802Z,99775.69
2022-10-06T13:58:09.361Z,99784.40
2022-10-06T14:08:38.508Z,99787.61
2022-10-06T14:19:07.871Z,99791.32
2022-10-06T14:29:38.084Z,99803.17
2022-10-06T14:40:11.554Z,99812.02
2022-10-06T14:50:40.370Z,99826.48
2022-10-06T15:01:10.160Z,99837.44
2022-10-06T15:11:39.433Z,99852.44
2022-10-06T15:22:09.157Z,99861.38
2022-10-06T15:32:37.348Z,99876.42
2022-10-06T15:43:05.406Z,99892.83
2022-10-06T15:53:33.470Z,99903.86
2022-10-06T16:04:09.030Z,99921.61
2022-10-06T16:14:37.553Z,99928.65
2022-10-06T16:25:05.820Z,99937.67
2022-10-06T16:35:34.101Z,99951.69
2022-10-06T16:46:04.109Z,99961.54
2022-10-06T16:56:35.247Z,99973.38
2022-10-06T17:07:04.364Z,99991.73
2022-10-06T17:17:32.421Z,99997.91
2022-10-06T17:28:00.530Z,100004.58
2022-10-06T17:38:30.865Z,100020.95
2022-10-06T17:49:01.905Z,100025.17
2022-10-06T17:59:32.069Z,100026.80
2022-10-06T18:10:17.507Z,100033.16
2022-10-06T18:20:48.316Z,100036.86
2022-10-06T18:31:17.723Z,100041.90
2022-10-06T18:41:47.697Z,100052.58
2022-10-06T18:52:16.258Z,100064.04
2022-10-06T19:02:48.226Z,100075.28
2022-10-06T19:13:16.790Z,100083.16
2022-10-06T19:23:45.086Z,100100.32
2022-10-06T19:34:16.959Z,100115.32
2022-10-06T19:44:45.363Z,100118.55
2022-10-06T19:55:13.580Z,100127.73
2022-10-06T20:05:41.689Z,100140.04
2022-10-06T20:16:12.273Z,100148.70
2022-10-06T20:26:42.607Z,100150.52
2022-10-06T20:37:10.946Z,100158.27
2022-10-06T20:47:39.045Z,100157.73
2022-10-06T20:58:07.079Z,100164.58
2022-10-06T21:08:35.911Z,100162.84
2022-10-06T21:19:05.479Z,100169.15
2022-10-06T21:29:33.625Z,100174.75
2022-10-06T21:40:02.660Z,100179.45
2022-10-06T21:50:30.823Z,100179.84
2022-10-06T22:01:02.618Z,100179.67
2022-10-06T22:11:32.335Z,100175.33
2022-10-06T22:22:00.477Z,100179.35
2022-10-06T22:32:28.559Z,100171.66
2022-10-06T22:42:56.606Z,100162.04
2022-10-06T22:53:26.555Z,100155.38
2022-10-06T23:03:56.250Z,100155.02
2022-10-06T23:14:24.792Z,100154.62
2022-10-06T23:24:53.587Z,100157.03
2022-10-06T23:35:21.635Z,100151.89
2022-10-06T23:45:50.018Z,100152.20
2022-10-06T23:56:19.171Z,100147.80
